Mackinaw City, MI

1:51 AM EDT on July 05, 2015 (GMT -0400)
MesoWest | | Change Station
CLOSE
Current Station
Personal Weather Station
Location: Mackinaw City, MI
Elevation: 646 ft
Nearby Weather Stations

Elev 646 ft 45.76 °N, 84.73 °W | Updated 36 minutes ago

Clear
Clear
55 °F
Feels Like 55 °F
N
2
Wind Variable Wind from NW
Gusts 12.0 mph

Today
High -- | Low -- °F
--% Chance of Precip.
Yesterday
High -- | Low -- °F
Precip. -- in
5:55 AM 9:31 PM
Waning Gibbous, 87% visible
Pressure 30.04 in
Visibility 10.0 miles
Clouds Clear
Dew Point 55 °F
Humidity 97%
Rainfall in
Snow Depth Not available.
UV 0 out of 12
Pollen 4.40 out of 12
Air Quality Not available.
Flu Activity Not available.
METAR KMCD 050536Z AUTO 00000KT 10SM CLR 13/12 A3004 RMK AO2 T01300124

More Conditions Fewer Conditions

Pressure 30.04 in
Visibility 10.0 miles
Clouds Clear
Dew Point 55 °F
Humidity 97%
Rainfall in
Snow Depth Not available.
UV 0 out of 12
Pollen 4.40 out of 12
Air Quality Not available.
Flu Activity Not available.
METAR KMCD 050536Z AUTO 00000KT 10SM CLR 13/12 A3004 RMK AO2 T01300124

More Conditions Fewer Conditions

Nowcast | as of 1:00 am EDT on July 5, 2015

At 2 am...mostly clear. Patchy fog. Temperature 58. Light winds. At 4 am...mostly clear. Patchy fog. Temperature 56. Light winds. At 6 am...mostly clear. Patchy fog. Temperature 57. Light winds. At 8 am...mostly clear. Temperature 60. Light winds.

×

10-Day Weather Forecast

×

Almanac

Astronomy

Jul. 05, 2015 Rise Set
Actual Time
Civil Twilight
Nautical Twilight
Astronomical Twilight
Moon
Length of Visible Light
Length of Day
Tomorrow will be .
, % of the Moon is Illuminated

Today's Extremes

State Highs State Lows

Community

WunderPhotos

Upload Photos

1,835,203 photos uploaded!

WunderBlogs® & News

Nearby

Air Quality

  Air Quality AQ Index Pollutant
Not available.

Snow Depth

Station Depth Elevation

Earthquake Activity

City Distance Mag. Time & Date
Minimum magnitude displayed is 2.5.

Coastal Water Temperatures

Place Temperature

Stations

Nearby Weather Stations

Station Location Temp. Windchill Dew Point Humidity Wind Precip. Elev Updated Type